Time;durP1;ratioP1;P1;durP2;ratioP2;P2;SDS_P1;SDS_P2;PMS_P1;PMS_P2;Temp;Humidity;BMP_temperature;BMP_pressure;BME280_temperature;BME280_humidity;BME280_pressure;Samples;Min_cycle;Max_cycle;Signal;HPM_P1;HPM_P2
2022/07/21 04:00:23;;;;;;;12.87;7.60;;;19.90;96.30;;;;;;6092329;23;21545;31
2022/07/21 04:02:49;;;;;;;11.83;7.77;;;19.70;96.30;;;;;;4962867;28;20471;-80
2022/07/21 04:05:17;;;;;;;14.90;7.23;;;19.60;96.30;;;;;;4957211;28;20807;-80
2022/07/21 04:07:45;;;;;;;15.50;7.67;;;19.50;96.30;;;;;;4962350;28;20183;-78
2022/07/21 04:10:13;;;;;;;13.37;7.73;;;19.40;96.30;;;;;;4960342;28;20519;-79
2022/07/21 04:12:39;;;;;;;11.47;7.40;;;19.60;96.30;;;;;;4958606;28;20446;-79
2022/07/21 04:15:06;;;;;;;15.37;7.63;;;20.00;96.30;;;;;;4958180;28;20890;-79
2022/07/21 04:17:32;;;;;;;10.47;6.97;;;20.60;96.30;;;;;;4961713;28;20254;-79
2022/07/21 04:19:57;;;;;;;13.87;7.03;;;21.40;96.30;;;;;;4974966;28;20425;-79
2022/07/21 04:27:35;;;;;;;12.93;7.40;;;23.80;96.30;;;;;;4998680;23;20497;-78
2022/07/21 04:30:01;;;;;;;11.87;6.80;;;24.80;95.30;;;;;;4994367;28;20436;-78
2022/07/21 04:32:26;;;;;;;16.30;7.17;;;25.70;91.70;;;;;;4966613;28;20465;-79
2022/07/21 04:34:52;;;;;;;13.77;7.67;;;26.50;89.10;;;;;;4971824;28;20195;-80
2022/07/21 04:37:17;;;;;;;16.60;7.77;;;26.90;91.00;;;;;;4972616;28;20245;-78
2022/07/21 04:39:43;;;;;;;13.90;7.20;;;27.40;85.80;;;;;;4976409;28;20239;-76
2022/07/21 04:42:08;;;;;;;12.17;7.03;;;28.20;84.50;;;;;;4971009;28;20696;-79
2022/07/21 04:44:34;;;;;;;35.77;7.27;;;28.70;84.70;;;;;;4974582;28;20703;-80
2022/07/21 04:46:59;;;;;;;11.43;6.60;;;29.40;80.90;;;;;;4989116;28;20184;-78
2022/07/21 04:49:25;;;;;;;10.37;5.60;;;30.10;77.70;;;;;;4985652;28;20177;-78
2022/07/21 04:51:50;;;;;;;9.53;5.60;;;30.90;76.80;;;;;;4994375;28;20275;-78
2022/07/21 04:54:16;;;;;;;6.57;5.90;;;31.30;75.10;;;;;;4994508;28;20169;-79
2022/07/21 04:56:42;;;;;;;8.93;4.90;;;31.80;73.60;;;;;;4994067;28;20200;-78
2022/07/21 04:59:08;;;;;;;11.23;5.88;;;32.20;72.40;;;;;;4993047;28;20215;-78
2022/07/21 05:01:35;;;;;;;12.05;5.95;;;32.00;72.20;;;;;;4994227;28;20565;-78
2022/07/21 05:04:00;;;;;;;16.20;5.80;;;31.70;72.10;;;;;;4991431;28;20277;-78
2022/07/21 05:06:26;;;;;;;10.95;5.75;;;30.90;74.20;;;;;;4970222;28;20639;-77
2022/07/21 05:08:51;;;;;;;12.53;5.13;;;29.90;76.50;;;;;;4974278;28;20174;-77
2022/07/21 05:11:17;;;;;;;8.77;5.20;;;28.80;78.40;;;;;;4974712;28;20665;-77
2022/07/21 05:13:42;;;;;;;12.93;5.00;;;27.80;82.60;;;;;;4972536;28;20273;-78
2022/07/21 05:16:08;;;;;;;7.50;5.70;;;27.20;84.50;;;;;;4974661;28;20198;-78
2022/07/21 05:18:34;;;;;;;6.20;5.33;;;27.00;84.60;;;;;;4984254;28;20539;-77
2022/07/21 05:20:59;;;;;;;8.37;4.90;;;26.50;86.00;;;;;;4988204;28;20213;-77
2022/07/21 05:23:25;;;;;;;7.10;5.30;;;26.20;86.00;;;;;;4955240;28;20245;-79
2022/07/21 05:25:50;;;;;;;6.03;4.80;;;25.80;87.10;;;;;;4954949;28;20210;-77
2022/07/21 05:28:16;;;;;;;9.13;5.10;;;26.40;91.70;;;;;;4955084;29;20178;-78
2022/07/21 05:30:41;;;;;;;9.00;5.80;;;27.70;83.60;;;;;;4955096;28;20203;-78
2022/07/21 05:33:06;;;;;;;19.67;6.27;;;28.80;82.30;;;;;;4953752;29;20196;-79
2022/07/21 05:35:32;;;;;;;10.70;4.90;;;30.40;78.20;;;;;;4954773;28;20237;-78
2022/07/21 05:37:58;;;;;;;8.95;4.75;;;31.30;76.40;;;;;;4969059;28;20215;-78
2022/07/21 05:40:23;;;;;;;5.25;4.32;;;32.00;71.00;;;;;;4993505;28;20522;-78
2022/07/21 05:42:49;;;;;;;5.55;4.20;;;31.50;72.40;;;;;;4979694;28;20269;-79
2022/07/21 05:45:14;;;;;;;5.40;3.95;;;32.50;70.60;;;;;;4973759;28;20225;-79
2022/07/21 05:47:40;;;;;;;21.83;4.78;;;32.50;69.80;;;;;;4993369;28;20173;-79
2022/07/21 05:50:07;;;;;;;11.57;4.25;;;32.10;70.40;;;;;;4992526;28;20177;-78
2022/07/21 05:52:32;;;;;;;5.03;3.97;;;32.00;70.50;;;;;;4993550;28;20193;-78
2022/07/21 05:54:58;;;;;;;11.20;5.00;;;31.30;72.70;;;;;;4993652;28;20544;-78
2022/07/21 05:57:23;;;;;;;6.50;4.80;;;31.10;73.70;;;;;;4993580;28;20243;-80
2022/07/21 05:59:49;;;;;;;7.03;4.85;;;31.50;72.20;;;;;;4993460;28;20181;-78
2022/07/21 06:02:14;;;;;;;13.10;5.10;;;31.70;71.50;;;;;;4985621;28;20677;-79
2022/07/21 06:04:40;;;;;;;7.63;4.67;;;31.50;71.50;;;;;;4981144;28;20212;-79
2022/07/21 06:07:05;;;;;;;13.60;5.23;;;30.40;74.20;;;;;;4974577;28;20173;-79
2022/07/21 06:09:31;;;;;;;7.70;5.10;;;30.20;74.80;;;;;;4973867;28;20184;-79
2022/07/21 06:11:56;;;;;;;8.37;4.87;;;29.60;75.80;;;;;;4974329;28;20228;-79
2022/07/21 06:14:22;;;;;;;5.80;4.47;;;29.10;77.90;;;;;;4982316;28;20778;-79
2022/07/21 06:16:48;;;;;;;6.43;5.20;;;30.10;74.90;;;;;;4982667;28;20640;-80
2022/07/21 06:19:14;;;;;;;11.35;5.22;;;31.40;72.50;;;;;;4982741;28;20181;-80
2022/07/21 06:21:40;;;;;;;8.13;4.22;;;32.20;72.20;;;;;;4978953;28;20192;-80
2022/07/21 06:24:07;;;;;;;11.25;5.18;;;32.70;68.90;;;;;;4986207;28;20177;-80
2022/07/21 06:26:32;;;;;;;8.23;4.78;;;32.60;72.10;;;;;;4974162;28;20197;-80
2022/07/21 06:28:58;;;;;;;6.28;4.68;;;32.10;71.90;;;;;;4969435;28;20186;-79
2022/07/21 06:31:23;;;;;;;9.20;4.68;;;31.50;73.40;;;;;;4959523;28;20235;-80
2022/07/21 06:33:49;;;;;;;10.95;5.47;;;30.70;75.10;;;;;;4985971;28;20173;-79
2022/07/21 06:36:14;;;;;;;5.70;4.60;;;30.40;76.40;;;;;;4978472;28;21724;-80
2022/07/21 06:38:41;;;;;;;8.82;4.65;;;30.00;77.10;;;;;;4964703;28;20182;-80
2022/07/21 06:41:07;;;;;;;8.40;4.80;;;30.00;77.70;;;;;;4984266;28;20204;-79
2022/07/21 06:43:33;;;;;;;9.27;4.97;;;30.10;76.40;;;;;;4980697;28;20620;-80
2022/07/21 06:45:59;;;;;;;14.13;5.57;;;29.90;77.70;;;;;;4973883;28;20542;-80
2022/07/21 06:48:25;;;;;;;5.27;4.77;;;29.70;78.80;;;;;;4972392;28;20416;-80
2022/07/21 06:50:51;;;;;;;6.77;5.00;;;29.60;77.90;;;;;;4973451;28;20198;-80
2022/07/21 06:53:17;;;;;;;6.03;4.87;;;29.30;79.20;;;;;;4983907;28;20413;-79
2022/07/21 06:55:43;;;;;;;8.90;4.70;;;28.60;79.80;;;;;;4981539;28;20508;-80
2022/07/21 06:58:16;;;;;;;5.97;4.83;;;28.30;80.90;;;;;;4974492;28;20180;-79
2022/07/21 07:00:43;;;;;;;10.37;5.40;;;28.40;81.00;;;;;;4975099;28;20201;-79
2022/07/21 07:03:08;;;;;;;23.40;7.17;;;29.80;79.30;;;;;;4983077;28;20478;-80
2022/07/21 07:05:34;;;;;;;8.50;5.87;;;31.30;76.60;;;;;;4986662;28;20452;-80
2022/07/21 07:08:00;;;;;;;9.65;5.57;;;32.70;72.60;;;;;;4996738;28;20640;-80
2022/07/21 07:10:26;;;;;;;12.63;6.28;;;34.00;70.80;;;;;;4999262;28;20172;-80
2022/07/21 07:12:51;;;;;;;8.85;5.85;;;34.00;69.60;;;;;;4999990;28;20176;-79
2022/07/21 07:15:17;;;;;;;10.00;5.60;;;33.70;70.80;;;;;;5001423;28;20299;-80
2022/07/21 07:17:42;;;;;;;8.20;6.70;;;33.50;70.70;;;;;;5000977;28;20181;-80
2022/07/21 07:20:08;;;;;;;14.93;6.43;;;33.20;70.90;;;;;;5000272;28;20649;-79
2022/07/21 07:22:34;;;;;;;9.45;6.13;;;33.00;70.60;;;;;;4998844;28;20193;-79
2022/07/21 07:24:59;;;;;;;9.73;6.80;;;32.90;71.90;;;;;;4999213;28;20350;-79
2022/07/21 07:27:25;;;;;;;6.97;6.20;;;32.40;70.90;;;;;;5000054;28;20255;-79
2022/07/21 07:29:51;;;;;;;10.32;6.43;;;32.60;74.00;;;;;;5001155;28;20212;-77
2022/07/21 07:32:16;;;;;;;13.20;6.68;;;32.50;73.20;;;;;;4978342;28;20198;-76
2022/07/21 07:34:42;;;;;;;11.55;6.40;;;31.70;73.40;;;;;;4955997;28;20202;-78
2022/07/21 07:37:07;;;;;;;9.82;6.18;;;32.00;74.50;;;;;;4962839;28;20217;-76
2022/07/21 07:39:33;;;;;;;13.00;6.43;;;31.70;73.60;;;;;;4973681;28;20814;-77
2022/07/21 07:41:59;;;;;;;18.20;7.10;;;31.40;75.20;;;;;;4992186;28;20201;-76
2022/07/21 07:44:24;;;;;;;8.10;5.38;;;30.80;76.50;;;;;;4992103;28;20637;-76
2022/07/21 07:46:50;;;;;;;7.40;5.43;;;30.30;77.90;;;;;;4992039;28;20193;-77
2022/07/21 07:49:16;;;;;;;10.70;4.90;;;29.70;78.50;;;;;;4982666;28;20540;-78
2022/07/21 07:51:42;;;;;;;8.73;4.77;;;29.20;79.10;;;;;;4973710;28;20552;-78
2022/07/21 07:54:07;;;;;;;7.97;5.47;;;28.90;80.80;;;;;;4973603;28;20409;-78
2022/07/21 07:56:33;;;;;;;4.67;4.27;;;29.00;80.20;;;;;;4973783;28;20184;-77
2022/07/21 07:58:58;;;;;;;6.13;4.60;;;29.40;80.20;;;;;;4980744;28;20189;-79
2022/07/21 08:01:24;;;;;;;8.07;4.40;;;29.80;79.20;;;;;;4985917;28;20223;-78
2022/07/21 08:03:49;;;;;;;9.27;3.50;;;31.00;76.50;;;;;;4996237;28;20189;-78
2022/07/21 08:06:15;;;;;;;3.73;3.47;;;32.00;74.00;;;;;;4996177;28;20200;-79
2022/07/21 08:08:41;;;;;;;5.03;3.63;;;32.60;71.50;;;;;;4996115;28;20716;-80
2022/07/21 08:11:06;;;;;;;9.87;3.80;;;33.20;70.60;;;;;;4996736;28;20189;-79
2022/07/21 08:13:32;;;;;;;8.40;3.83;;;33.40;69.90;;;;;;4996468;28;20185;-78
2022/07/21 08:15:57;;;;;;;5.07;3.88;;;33.70;68.40;;;;;;4996279;28;20180;-78
2022/07/21 08:18:23;;;;;;;4.25;3.72;;;34.50;68.80;;;;;;4996796;28;20533;-80
2022/07/21 08:20:49;;;;;;;4.18;3.78;;;33.80;67.90;;;;;;4997057;28;20197;-78
2022/07/21 08:23:15;;;;;;;7.35;3.78;;;33.00;69.90;;;;;;4996650;28;20220;-78
2022/07/21 08:25:41;;;;;;;10.57;3.53;;;32.00;71.80;;;;;;4996963;28;20211;-78
2022/07/21 08:28:08;;;;;;;10.25;4.45;;;31.20;72.00;;;;;;4997347;28;20177;-78
2022/07/21 08:30:34;;;;;;;5.80;3.97;;;30.70;74.30;;;;;;4996665;28;20173;-79
2022/07/21 08:32:59;;;;;;;8.37;3.67;;;30.40;74.00;;;;;;4997332;28;20268;-79
2022/07/21 08:35:25;;;;;;;3.77;3.47;;;30.30;75.30;;;;;;5017395;28;20168;-79
2022/07/21 08:37:56;;;;;;;6.03;2.80;;;30.90;74.90;;;;;;5017346;28;20192;-77
2022/07/21 08:40:24;;;;;;;8.97;2.97;;;31.60;73.50;;;;;;4993448;28;20177;-77
2022/07/21 08:42:51;;;;;;;4.83;2.90;;;31.90;71.90;;;;;;4976194;28;20173;-77
2022/07/21 08:45:17;;;;;;;4.20;3.10;;;31.60;71.00;;;;;;4975475;28;20587;-77
2022/07/21 08:47:42;;;;;;;5.17;3.00;;;30.70;74.70;;;;;;4975361;28;20417;-78
2022/07/21 08:50:08;;;;;;;2.80;2.60;;;30.40;75.10;;;;;;4976147;28;20174;-77
2022/07/21 08:52:34;;;;;;;2.70;2.47;;;29.80;75.60;;;;;;4975418;28;20229;-79
2022/07/21 08:55:00;;;;;;;3.37;2.60;;;29.60;75.70;;;;;;4974380;28;20437;-79
2022/07/21 08:57:26;;;;;;;2.90;2.60;;;29.30;76.00;;;;;;4975553;28;20417;-78
2022/07/21 08:59:52;;;;;;;3.83;2.83;;;29.30;76.40;;;;;;4975182;28;20190;-77
2022/07/21 09:02:32;;;;;;;3.20;2.60;;;29.10;76.70;;;;;;4975297;28;20260;-77
2022/07/21 09:04:57;;;;;;;4.27;2.60;;;28.90;75.30;;;;;;4975321;28;20197;-77
2022/07/21 09:07:23;;;;;;;3.47;2.07;;;28.50;76.90;;;;;;4975116;28;20414;-78
2022/07/21 09:10:20;;;;;;;3.50;2.70;;;28.00;79.50;;;;;;4982103;28;20541;-79
2022/07/21 09:12:51;;;;;;;3.67;2.37;;;27.70;79.90;;;;;;4975645;28;20704;-78
2022/07/21 09:15:19;;;;;;;2.50;2.30;;;27.50;80.70;;;;;;4990976;28;21011;-77
2022/07/21 09:17:44;;;;;;;2.97;2.30;;;27.50;80.30;;;;;;4974612;28;20565;-77
2022/07/21 09:20:24;;;;;;;5.43;2.50;;;27.60;80.80;;;;;;4973641;28;20856;-77
2022/07/21 09:23:11;;;;;;;3.77;2.40;;;27.60;80.90;;;;;;4967168;28;20236;-77
2022/07/21 09:25:45;;;;;;;6.00;3.10;;;27.60;81.50;;;;;;4974632;28;20467;-77
2022/07/21 09:28:21;;;;;;;2.90;2.43;;;27.40;81.70;;;;;;4974389;28;20436;-77
2022/07/21 09:31:00;;;;;;;3.67;3.30;;;27.50;81.80;;;;;;4974516;28;20796;-77
2022/07/21 09:33:32;;;;;;;3.40;3.10;;;27.60;80.10;;;;;;4984187;28;20424;-77
2022/07/21 09:36:09;;;;;;;6.13;2.67;;;27.70;80.80;;;;;;4994021;28;20467;-78
2022/07/21 09:38:41;;;;;;;3.10;2.80;;;27.40;82.50;;;;;;4993794;28;20412;-77
2022/07/21 09:41:21;;;;;;;6.23;3.10;;;27.10;83.00;;;;;;4993781;28;20440;-77
2022/07/21 09:43:49;;;;;;;4.47;3.13;;;26.80;83.20;;;;;;4960271;28;20430;-77
2022/07/21 09:46:16;;;;;;;6.47;3.47;;;26.50;84.40;;;;;;4953549;28;20465;-77
2022/07/21 09:48:43;;;;;;;8.53;3.37;;;25.90;87.20;;;;;;4953643;29;20449;-76
2022/07/21 09:51:29;;;;;;;9.30;3.50;;;25.70;88.60;;;;;;4954930;28;20960;-77
2022/07/21 09:53:56;;;;;;;5.80;3.60;;;25.70;89.30;;;;;;4954688;29;20406;-77
2022/07/21 09:56:23;;;;;;;10.70;3.40;;;25.30;90.30;;;;;;4954791;28;20808;-77
2022/07/21 09:58:52;;;;;;;3.97;3.00;;;25.20;91.90;;;;;;4954471;29;20417;-78
2022/07/21 10:01:17;;;;;;;5.03;3.57;;;25.10;92.80;;;;;;4953421;29;20438;-77
2022/07/21 10:03:45;;;;;;;6.30;3.80;;;24.60;96.00;;;;;;4953405;29;20472;-78
2022/07/21 10:06:11;;;;;;;6.37;3.60;;;24.30;96.30;;;;;;4954473;28;20205;-78
2022/07/21 10:08:38;;;;;;;6.93;4.33;;;23.90;96.30;;;;;;4954420;28;20402;-79
2022/07/21 10:11:05;;;;;;;9.73;3.80;;;23.50;96.30;;;;;;4991407;28;20436;-78
2022/07/21 10:13:31;;;;;;;7.53;4.27;;;23.30;96.30;;;;;;4993691;28;20429;-80
2022/07/21 10:15:58;;;;;;;5.00;4.07;;;23.20;96.30;;;;;;4997606;28;20482;-80
2022/07/21 10:18:26;;;;;;;7.90;5.03;;;23.00;96.30;;;;;;4985247;28;20199;-79
2022/07/21 14:27:33;;;;;;;10.03;5.13;;;21.50;96.30;;;;;;4959467;29;20434;-79
2022/07/21 14:30:00;;;;;;;5.77;5.00;;;21.80;96.30;;;;;;4975408;28;20893;-79
2022/07/21 14:32:26;;;;;;;6.87;5.77;;;22.10;96.30;;;;;;4977041;28;20568;-79
2022/07/21 14:34:52;;;;;;;7.43;5.50;;;22.30;96.30;;;;;;4993527;28;20456;-79
2022/07/21 14:37:19;;;;;;;6.53;5.60;;;22.70;96.30;;;;;;4993764;28;20179;-80
2022/07/21 14:39:48;;;;;;;7.20;5.37;;;23.30;96.30;;;;;;4973931;28;20939;-79
2022/07/21 14:42:14;;;;;;;7.00;4.93;;;23.90;96.30;;;;;;4973447;28;20480;-77
2022/07/21 14:44:40;;;;;;;9.03;5.20;;;23.60;96.30;;;;;;4973334;28;20858;-76
2022/07/21 14:47:06;;;;;;;5.47;4.73;;;24.00;96.30;;;;;;4977618;28;20414;-78
2022/07/21 14:49:33;;;;;;;6.13;5.30;;;24.00;96.30;;;;;;4973010;28;20438;-76
2022/07/21 14:51:59;;;;;;;6.47;5.60;;;24.10;96.30;;;;;;4973142;28;20438;-78
2022/07/21 14:54:24;;;;;;;5.50;5.00;;;24.20;96.30;;;;;;4973745;28;20501;-79
2022/07/21 14:56:50;;;;;;;8.53;6.00;;;24.40;96.30;;;;;;4974272;28;20174;-76
2022/07/21 14:59:15;;;;;;;6.17;5.57;;;24.70;96.30;;;;;;4972868;28;20181;-77
2022/07/21 15:01:40;;;;;;;7.00;6.10;;;25.00;96.30;;;;;;4976217;28;20560;-80
2022/07/21 15:04:07;;;;;;;5.60;5.10;;;25.40;96.30;;;;;;4981438;28;20173;-80
2022/07/21 15:06:32;;;;;;;6.37;5.00;;;25.60;96.30;;;;;;4982767;28;20744;-80
2022/07/21 15:08:58;;;;;;;11.37;6.23;;;25.60;96.30;;;;;;4976596;28;20413;-81
2022/07/21 15:11:24;;;;;;;9.43;5.90;;;25.60;96.30;;;;;;4955779;28;20202;-81
2022/07/21 15:13:49;;;;;;;5.43;4.90;;;25.50;96.30;;;;;;4958287;28;20269;-82
2022/07/21 15:16:15;;;;;;;5.73;5.20;;;25.60;96.30;;;;;;4959955;28;20458;-80
2022/07/21 15:18:40;;;;;;;5.57;4.80;;;25.70;96.30;;;;;;4956215;29;20194;-80
2022/07/21 15:21:06;;;;;;;8.30;6.37;;;25.70;96.30;;;;;;4960268;29;20281;-81
2022/07/21 15:23:32;;;;;;;5.87;5.30;;;25.60;96.30;;;;;;4975048;28;20201;-81
2022/07/21 15:25:57;;;;;;;8.30;5.50;;;25.20;96.30;;;;;;4961572;29;20233;-80
2022/07/21 15:28:23;;;;;;;7.23;5.70;;;25.00;96.30;;;;;;4960491;29;20189;-81
2022/07/21 15:30:48;;;;;;;5.60;5.10;;;25.00;96.30;;;;;;4949036;29;20578;-80
2022/07/21 15:33:14;;;;;;;5.30;4.80;;;25.00;96.30;;;;;;4938364;29;20182;-80
2022/07/21 15:35:39;;;;;;;7.20;5.67;;;25.10;96.30;;;;;;4959888;29;20336;-81
2022/07/21 15:38:05;;;;;;;6.80;6.13;;;25.00;96.30;;;;;;4958206;29;20178;-81
2022/07/21 15:40:31;;;;;;;6.63;5.30;;;24.90;96.30;;;;;;4957324;28;20183;-82
2022/07/21 15:42:56;;;;;;;7.87;6.50;;;25.00;96.30;;;;;;4958497;29;20546;-82
2022/07/21 15:45:22;;;;;;;7.10;5.97;;;25.30;96.30;;;;;;4957988;29;20237;-82
2022/07/21 15:47:47;;;;;;;6.80;6.10;;;25.30;96.30;;;;;;4958044;29;20171;-81
2022/07/21 15:50:13;;;;;;;14.13;6.37;;;25.20;96.30;;;;;;4947278;29;20191;-82
2022/07/21 15:52:39;;;;;;;6.90;6.20;;;25.20;96.30;;;;;;4939566;29;20203;-82
2022/07/21 15:55:07;;;;;;;7.80;6.40;;;25.30;96.30;;;;;;4941444;29;20178;-82
2022/07/21 15:57:35;;;;;;;6.87;5.70;;;25.50;96.30;;;;;;4957718;28;20414;-81
2022/07/21 16:00:01;;;;;;;6.63;5.97;;;25.50;96.30;;;;;;4963495;28;20447;-81
2022/07/21 16:02:26;;;;;;;6.67;6.07;;;25.40;96.30;;;;;;4954793;28;20524;-80
2022/07/21 16:04:52;;;;;;;6.30;5.70;;;25.40;96.30;;;;;;4958563;29;20969;-81
2022/07/21 16:07:17;;;;;;;6.73;6.13;;;25.30;96.30;;;;;;4957960;29;20191;-80
2022/07/21 16:09:43;;;;;;;12.97;6.03;;;25.20;96.30;;;;;;4964900;28;20178;-80
2022/07/21 16:12:10;;;;;;;7.63;5.73;;;25.20;96.30;;;;;;4975430;28;20190;-80
2022/07/21 16:14:35;;;;;;;7.10;5.97;;;25.50;96.30;;;;;;4977019;28;20178;-81
2022/07/21 16:17:01;;;;;;;8.23;5.40;;;25.40;96.30;;;;;;4981416;28;20932;-81
2022/07/21 16:19:27;;;;;;;5.73;5.23;;;25.70;96.30;;;;;;4980609;28;20181;-81
2022/07/21 16:21:54;;;;;;;5.70;5.20;;;26.10;96.30;;;;;;4979976;28;20205;-81
2022/07/21 16:24:20;;;;;;;6.93;6.23;;;26.40;96.30;;;;;;4979333;28;20189;-81
2022/07/21 16:26:46;;;;;;;8.50;5.50;;;26.30;94.80;;;;;;4995398;28;20936;-82
2022/07/21 16:29:11;;;;;;;5.90;5.40;;;26.20;95.20;;;;;;4994108;28;20170;-81
2022/07/21 16:31:38;;;;;;;5.23;4.73;;;26.50;96.30;;;;;;4980713;28;20276;-81
2022/07/21 16:34:05;;;;;;;5.77;5.10;;;26.50;95.90;;;;;;4979703;28;20232;-81
2022/07/21 16:36:31;;;;;;;8.77;5.40;;;26.50;95.50;;;;;;4947892;28;20418;-80
2022/07/21 16:38:57;;;;;;;7.97;6.20;;;26.50;96.30;;;;;;4951954;29;20410;-81
2022/07/21 16:41:23;;;;;;;6.50;5.90;;;26.40;96.30;;;;;;4956232;28;20450;-77
2022/07/21 16:43:48;;;;;;;7.73;5.13;;;26.50;96.30;;;;;;4943339;29;20532;-77
2022/07/21 16:46:14;;;;;;;11.63;5.97;;;26.50;96.00;;;;;;4956235;29;20210;-78
2022/07/21 16:48:40;;;;;;;5.30;4.90;;;26.40;96.20;;;;;;4969534;28;20555;-80
2022/07/21 16:51:05;;;;;;;6.27;5.67;;;26.60;94.50;;;;;;4951771;29;20186;-81
2022/07/21 16:53:31;;;;;;;6.23;5.63;;;26.40;95.40;;;;;;4950278;29;20178;-80
2022/07/21 16:55:57;;;;;;;7.40;5.07;;;26.20;94.50;;;;;;4944525;29;20179;-80
2022/07/21 16:58:22;;;;;;;7.33;5.60;;;26.50;94.80;;;;;;4941976;29;20175;-80
2022/07/21 17:00:48;;;;;;;6.30;5.70;;;26.50;94.00;;;;;;4943604;29;20202;-79
2022/07/21 17:03:13;;;;;;;5.27;4.83;;;26.40;94.30;;;;;;4953105;29;20698;-79
2022/07/21 17:05:39;;;;;;;5.70;5.20;;;26.40;94.30;;;;;;4955818;29;20596;-77
2022/07/21 17:08:05;;;;;;;7.13;5.20;;;26.30;94.70;;;;;;4957075;29;20174;-80
2022/07/21 17:10:30;;;;;;;7.07;5.30;;;26.30;94.50;;;;;;4959162;29;20167;-80
2022/07/21 17:12:56;;;;;;;6.67;5.97;;;26.30;94.70;;;;;;4958882;29;20175;-80
2022/07/21 17:15:21;;;;;;;251.50;220.07;;;26.20;95.60;;;;;;4956036;29;20272;-76
2022/07/21 17:17:47;;;;;;;1360.07;999.90;;;25.80;96.30;;;;;;4956097;29;20198;-76
2022/07/21 17:20:13;;;;;;;815.60;736.27;;;25.70;96.30;;;;;;4954770;29;20178;-76
2022/07/21 17:22:39;;;;;;;40.83;35.03;;;25.60;96.30;;;;;;4955725;28;20194;-77
2022/07/21 17:25:06;;;;;;;14.20;9.90;;;25.60;96.30;;;;;;4956132;29;20787;-77
2022/07/21 17:27:33;;;;;;;11.90;9.33;;;25.70;96.30;;;;;;4939702;28;20181;-76
2022/07/21 17:29:58;;;;;;;8.93;8.13;;;25.80;96.30;;;;;;4936125;29;20745;-76
2022/07/21 17:32:26;;;;;;;15.93;13.00;;;25.80;95.00;;;;;;4951175;28;20446;-76
2022/07/21 17:34:52;;;;;;;11.87;7.70;;;25.80;95.60;;;;;;4935716;29;20175;-76
2022/07/21 17:37:17;;;;;;;8.87;8.00;;;25.90;96.20;;;;;;4950644;28;20832;-76
2022/07/21 17:39:43;;;;;;;13.80;12.40;;;25.90;96.30;;;;;;4940140;28;20237;-76
2022/07/21 17:42:08;;;;;;;7.13;5.60;;;25.80;96.30;;;;;;4974446;28;20201;-76
2022/07/21 17:44:34;;;;;;;5.97;5.53;;;25.70;96.30;;;;;;4974528;28;20654;-76
2022/07/21 17:46:59;;;;;;;6.33;5.70;;;25.50;96.30;;;;;;4989174;28;20541;-79
2022/07/21 17:49:25;;;;;;;6.63;5.97;;;25.60;96.30;;;;;;4974073;28;20176;-78
2022/07/21 17:51:50;;;;;;;5.67;5.17;;;25.50;96.30;;;;;;4974388;28;20202;-76
2022/07/21 17:54:16;;;;;;;10.30;6.30;;;25.40;96.30;;;;;;4974490;28;20170;-76
2022/07/21 17:56:41;;;;;;;5.90;5.40;;;25.40;96.30;;;;;;4974037;28;20626;-77
2022/07/21 17:59:07;;;;;;;5.80;5.30;;;25.40;96.30;;;;;;4973910;28;20641;-76
2022/07/21 18:01:32;;;;;;;5.33;4.90;;;25.20;96.30;;;;;;4974121;28;20197;-76
2022/07/21 18:03:58;;;;;;;5.53;4.90;;;25.10;95.90;;;;;;4975382;28;20549;-76
2022/07/21 18:06:24;;;;;;;7.70;5.37;;;25.10;95.50;;;;;;4974533;28;20723;-77
2022/07/21 18:08:50;;;;;;;5.53;5.00;;;25.00;96.30;;;;;;4973826;28;20171;-78
2022/07/21 18:11:17;;;;;;;7.00;5.20;;;24.90;96.20;;;;;;4974270;28;20249;-77
2022/07/21 18:13:43;;;;;;;5.77;5.27;;;24.80;96.30;;;;;;4974259;28;20420;-75
2022/07/21 18:16:09;;;;;;;5.97;5.47;;;24.50;96.30;;;;;;4967712;28;20517;-76
2022/07/21 18:18:35;;;;;;;6.17;5.07;;;24.50;96.30;;;;;;4973074;28;20492;-77
2022/07/21 18:21:01;;;;;;;6.97;5.80;;;24.30;96.30;;;;;;4973789;28;20201;-76
2022/07/21 18:23:26;;;;;;;8.20;5.77;;;24.10;96.30;;;;;;4973550;28;20804;-77
2022/07/21 18:25:52;;;;;;;6.30;5.70;;;23.90;96.30;;;;;;4973696;28;20661;-76
2022/07/21 18:28:17;;;;;;;9.53;6.10;;;23.70;96.30;;;;;;4973015;28;20194;-76
2022/07/21 18:30:45;;;;;;;6.77;6.10;;;23.60;96.30;;;;;;4987958;28;20262;-76
2022/07/21 18:33:11;;;;;;;5.77;5.37;;;23.50;96.30;;;;;;4973515;28;20504;-77
2022/07/21 18:35:38;;;;;;;5.93;5.40;;;23.40;96.30;;;;;;4973441;28;20425;-77
2022/07/21 18:38:05;;;;;;;7.07;6.37;;;23.30;96.30;;;;;;4972372;28;20171;-77
2022/07/21 18:40:31;;;;;;;7.90;6.60;;;23.20;96.30;;;;;;4963966;28;20514;-76
2022/07/21 18:42:58;;;;;;;8.10;5.80;;;23.00;96.30;;;;;;4943974;28;20569;-76
2022/07/21 18:45:24;;;;;;;7.10;6.00;;;22.90;96.30;;;;;;4951878;29;20252;-76
2022/07/21 18:47:50;;;;;;;6.43;5.93;;;22.70;96.30;;;;;;4952637;28;20505;-76
2022/07/21 18:50:15;;;;;;;6.70;6.03;;;22.50;96.30;;;;;;4954088;29;20465;-77
2022/07/21 18:52:41;;;;;;;6.90;6.30;;;22.50;96.30;;;;;;4958355;29;20250;-79
2022/07/21 18:55:09;;;;;;;8.37;6.60;;;22.40;96.30;;;;;;4953871;29;20604;-76
2022/07/21 18:57:34;;;;;;;9.20;6.33;;;22.40;96.30;;;;;;4949947;29;20179;-77
2022/07/21 19:00:00;;;;;;;7.30;6.70;;;22.40;96.30;;;;;;4942440;29;20430;-76
2022/07/21 19:02:27;;;;;;;8.57;6.83;;;22.40;96.30;;;;;;4944632;29;20207;-77
2022/07/21 19:04:55;;;;;;;7.73;6.97;;;22.60;96.30;;;;;;4942845;29;20714;-77
2022/07/21 19:07:20;;;;;;;7.10;6.40;;;22.70;96.30;;;;;;4937913;28;20426;-75
2022/07/21 19:09:46;;;;;;;7.20;6.70;;;22.70;96.30;;;;;;4947126;28;20423;-76
2022/07/21 19:12:14;;;;;;;8.27;7.23;;;22.70;96.30;;;;;;4944844;29;20205;-75
2022/07/21 19:14:41;;;;;;;15.97;6.57;;;22.80;96.30;;;;;;4950434;28;20544;-75
2022/07/21 19:17:08;;;;;;;6.80;6.20;;;22.70;96.30;;;;;;4939462;29;20506;-76
2022/07/21 19:19:33;;;;;;;8.47;6.40;;;22.60;96.30;;;;;;4938396;29;20411;-77
2022/07/21 19:21:59;;;;;;;10.00;6.37;;;22.60;96.30;;;;;;4943567;28;20805;-77
2022/07/21 19:24:24;;;;;;;7.70;7.00;;;22.50;96.30;;;;;;4941776;29;20184;-75
2022/07/21 19:26:50;;;;;;;7.40;6.70;;;22.50;96.30;;;;;;4933042;29;20184;-75
2022/07/21 19:29:15;;;;;;;7.33;6.50;;;22.40;96.30;;;;;;4934409;29;20586;-76
2022/07/21 19:31:41;;;;;;;6.87;6.13;;;22.30;96.30;;;;;;4934133;29;20203;-76
2022/07/21 19:34:06;;;;;;;7.20;6.43;;;22.10;96.30;;;;;;4934551;29;20179;-76
2022/07/21 19:36:32;;;;;;;6.10;5.53;;;22.00;96.30;;;;;;4934343;29;20547;-76
2022/07/21 19:38:57;;;;;;;7.80;7.10;;;21.90;96.30;;;;;;4934081;29;20176;-77
2022/07/21 19:41:26;;;;;;;7.00;6.33;;;21.80;96.30;;;;;;4965336;28;20582;-76
2022/07/21 19:43:52;;;;;;;7.33;6.57;;;21.80;96.30;;;;;;4972873;28;20306;-76
2022/07/21 19:46:17;;;;;;;6.90;6.30;;;21.80;96.30;;;;;;4972632;28;20549;-76
2022/07/21 19:48:43;;;;;;;7.60;6.80;;;21.80;96.30;;;;;;4972568;28;20759;-76
2022/07/21 19:51:08;;;;;;;6.93;6.23;;;21.80;96.30;;;;;;4972724;28;20252;-75
2022/07/21 19:53:34;;;;;;;8.40;6.13;;;21.80;96.30;;;;;;4972818;28;20182;-77
2022/07/21 19:56:02;;;;;;;9.43;6.77;;;21.70;96.30;;;;;;4972869;28;20166;-76
2022/07/21 19:58:27;;;;;;;15.03;7.50;;;21.60;96.30;;;;;;4974122;28;20184;-77
2022/07/21 20:00:53;;;;;;;8.67;7.27;;;21.60;96.30;;;;;;4970417;28;20873;-78
2022/07/21 20:03:19;;;;;;;11.63;7.27;;;21.50;96.30;;;;;;4954655;29;20706;-79
2022/07/21 20:05:44;;;;;;;7.67;6.70;;;21.40;96.30;;;;;;4988238;28;20203;-79
2022/07/21 20:08:10;;;;;;;8.07;7.37;;;21.40;96.30;;;;;;4956891;29;20171;-79
2022/07/21 20:10:36;;;;;;;9.67;6.50;;;21.30;96.30;;;;;;4972482;28;20266;-79
2022/07/21 20:13:04;;;;;;;8.27;6.40;;;21.30;96.30;;;;;;4972107;28;20175;-78
2022/07/21 20:15:30;;;;;;;7.90;7.20;;;21.40;96.30;;;;;;4956718;28;20542;-78
2022/07/21 20:17:55;;;;;;;8.50;7.40;;;21.40;96.30;;;;;;4954802;28;20841;-79
2022/07/21 20:20:21;;;;;;;7.40;6.80;;;21.40;96.30;;;;;;4956461;29;20426;-78
2022/07/21 20:22:46;;;;;;;6.60;6.00;;;21.40;96.30;;;;;;4956281;29;20726;-79
2022/07/21 20:25:12;;;;;;;8.33;6.40;;;21.40;96.30;;;;;;4965881;28;20269;-79
2022/07/21 20:27:38;;;;;;;11.43;7.73;;;21.40;96.30;;;;;;4976901;28;20167;-80
2022/07/21 20:30:05;;;;;;;9.47;6.30;;;21.40;96.30;;;;;;4977380;28;20309;-80
2022/07/21 20:32:31;;;;;;;9.47;6.73;;;21.30;96.30;;;;;;4991990;28;20434;-79
2022/07/21 20:34:56;;;;;;;6.60;6.00;;;21.20;96.30;;;;;;4977441;28;20421;-79
2022/07/21 20:37:22;;;;;;;7.37;6.00;;;21.10;96.30;;;;;;4991783;28;20182;-79
2022/07/21 20:39:47;;;;;;;6.47;5.87;;;21.00;96.30;;;;;;4962822;28;20265;-79
2022/07/21 20:42:13;;;;;;;6.00;5.50;;;20.90;96.30;;;;;;4974985;28;20300;-79
2022/07/21 20:44:38;;;;;;;5.50;5.00;;;20.90;96.30;;;;;;4989569;28;20187;-79
2022/07/21 20:47:04;;;;;;;7.30;6.60;;;20.90;96.30;;;;;;4974873;28;20178;-79
2022/07/21 20:49:29;;;;;;;6.87;6.17;;;20.90;96.30;;;;;;4974994;28;20174;-79